sensor_id;sensor_type;location;lat;lon;timestamp;temperature;humidity
76936;DHT22;65881;52.438;16.744;2023-09-19T00:01:42;17.50;99.90
76936;DHT22;65881;52.438;16.744;2023-09-19T00:04:12;17.50;99.90
76936;DHT22;65881;52.438;16.744;2023-09-19T00:06:41;17.50;99.90
76936;DHT22;65881;52.438;16.744;2023-09-19T00:09:08;17.40;99.90
76936;DHT22;65881;52.438;16.744;2023-09-19T00:11:37;17.40;99.90
76936;DHT22;65881;52.438;16.744;2023-09-19T00:14:04;17.30;99.90
76936;DHT22;65881;52.438;16.744;2023-09-19T00:16:30;17.30;99.90
76936;DHT22;65881;52.438;16.744;2023-09-19T00:18:57;17.30;99.90
76936;DHT22;65881;52.438;16.744;2023-09-19T00:21:23;17.40;99.90
76936;DHT22;65881;52.438;16.744;2023-09-19T00:23:49;17.30;99.90
76936;DHT22;65881;52.438;16.744;2023-09-19T00:26:17;17.30;99.90
76936;DHT22;65881;52.438;16.744;2023-09-19T00:28:44;17.30;99.90
76936;DHT22;65881;52.438;16.744;2023-09-19T00:31:09;17.30;99.90
76936;DHT22;65881;52.438;16.744;2023-09-19T00:33:35;17.40;99.90
76936;DHT22;65881;52.438;16.744;2023-09-19T00:36:01;17.40;99.90
76936;DHT22;65881;52.438;16.744;2023-09-19T00:38:31;17.40;99.90
76936;DHT22;65881;52.438;16.744;2023-09-19T00:40:57;17.40;99.90
76936;DHT22;65881;52.438;16.744;2023-09-19T00:43:25;17.40;99.90
76936;DHT22;65881;52.438;16.744;2023-09-19T00:45:54;17.40;99.90
76936;DHT22;65881;52.438;16.744;2023-09-19T00:48:21;17.30;99.90
76936;DHT22;65881;52.438;16.744;2023-09-19T00:50:47;17.20;99.90
76936;DHT22;65881;52.438;16.744;2023-09-19T00:53:17;17.20;99.90
76936;DHT22;65881;52.438;16.744;2023-09-19T00:55:44;17.20;99.90
76936;DHT22;65881;52.438;16.744;2023-09-19T00:58:11;17.20;99.90
76936;DHT22;65881;52.438;16.744;2023-09-19T01:00:37;17.20;99.90
76936;DHT22;65881;52.438;16.744;2023-09-19T01:03:04;17.20;99.90
76936;DHT22;65881;52.438;16.744;2023-09-19T01:05:33;17.20;99.90
76936;DHT22;65881;52.438;16.744;2023-09-19T01:07:58;17.20;99.90
76936;DHT22;65881;52.438;16.744;2023-09-19T01:10:24;17.20;99.90
76936;DHT22;65881;52.438;16.744;2023-09-19T01:13:08;17.20;99.90
76936;DHT22;65881;52.438;16.744;2023-09-19T01:15:40;17.20;99.90
76936;DHT22;65881;52.438;16.744;2023-09-19T01:18:16;17.20;99.90
76936;DHT22;65881;52.438;16.744;2023-09-19T01:23:20;17.20;99.90
76936;DHT22;65881;52.438;16.744;2023-09-19T01:31:31;17.20;99.90
76936;DHT22;65881;52.438;16.744;2023-09-19T01:34:03;17.20;99.90
76936;DHT22;65881;52.438;16.744;2023-09-19T01:36:36;17.20;99.90
76936;DHT22;65881;52.438;16.744;2023-09-19T01:39:15;17.20;99.90
76936;DHT22;65881;52.438;16.744;2023-09-19T01:47:37;17.20;99.90
76936;DHT22;65881;52.438;16.744;2023-09-19T01:50:25;17.20;99.90
76936;DHT22;65881;52.438;16.744;2023-09-19T01:53:05;17.20;99.90
76936;DHT22;65881;52.438;16.744;2023-09-19T01:55:42;17.20;99.90
76936;DHT22;65881;52.438;16.744;2023-09-19T02:00:41;17.30;99.90
76936;DHT22;65881;52.438;16.744;2023-09-19T02:03:09;17.20;99.90
76936;DHT22;65881;52.438;16.744;2023-09-19T02:05:35;17.30;99.90
76936;DHT22;65881;52.438;16.744;2023-09-19T02:08:01;17.20;99.90
76936;DHT22;65881;52.438;16.744;2023-09-19T02:10:26;17.20;99.90
76936;DHT22;65881;52.438;16.744;2023-09-19T02:12:52;17.20;99.90
76936;DHT22;65881;52.438;16.744;2023-09-19T02:15:18;17.20;99.90
76936;DHT22;65881;52.438;16.744;2023-09-19T02:17:44;17.10;99.90
76936;DHT22;65881;52.438;16.744;2023-09-19T02:20:12;17.00;99.90
76936;DHT22;65881;52.438;16.744;2023-09-19T02:22:41;17.00;99.90
76936;DHT22;65881;52.438;16.744;2023-09-19T02:25:07;17.00;99.90
76936;DHT22;65881;52.438;16.744;2023-09-19T02:27:34;16.90;99.90
76936;DHT22;65881;52.438;16.744;2023-09-19T02:29:59;16.90;99.90
76936;DHT22;65881;52.438;16.744;2023-09-19T02:32:29;16.90;99.90
76936;DHT22;65881;52.438;16.744;2023-09-19T02:34:57;16.90;99.90
76936;DHT22;65881;52.438;16.744;2023-09-19T02:37:23;16.80;99.90
76936;DHT22;65881;52.438;16.744;2023-09-19T02:39:49;16.80;99.90
76936;DHT22;65881;52.438;16.744;2023-09-19T02:42:14;16.70;99.90
76936;DHT22;65881;52.438;16.744;2023-09-19T02:44:40;16.70;99.90
76936;DHT22;65881;52.438;16.744;2023-09-19T02:47:06;16.80;99.90
76936;DHT22;65881;52.438;16.744;2023-09-19T02:49:31;16.80;99.90
76936;DHT22;65881;52.438;16.744;2023-09-19T02:51:58;16.70;99.90
76936;DHT22;65881;52.438;16.744;2023-09-19T02:54:24;16.70;99.90
76936;DHT22;65881;52.438;16.744;2023-09-19T02:56:50;16.60;99.90
76936;DHT22;65881;52.438;16.744;2023-09-19T02:59:16;16.70;99.90
76936;DHT22;65881;52.438;16.744;2023-09-19T03:01:44;16.60;99.90
76936;DHT22;65881;52.438;16.744;2023-09-19T03:04:13;16.50;99.90
76936;DHT22;65881;52.438;16.744;2023-09-19T03:06:42;16.50;99.90
76936;DHT22;65881;52.438;16.744;2023-09-19T03:09:10;16.50;99.90
76936;DHT22;65881;52.438;16.744;2023-09-19T03:11:36;16.50;99.90
76936;DHT22;65881;52.438;16.744;2023-09-19T03:14:03;16.40;99.90
76936;DHT22;65881;52.438;16.744;2023-09-19T03:16:29;16.40;99.90
76936;DHT22;65881;52.438;16.744;2023-09-19T03:18:55;16.40;99.90
76936;DHT22;65881;52.438;16.744;2023-09-19T03:21:21;16.40;99.90
76936;DHT22;65881;52.438;16.744;2023-09-19T03:23:47;16.40;99.90
76936;DHT22;65881;52.438;16.744;2023-09-19T03:26:13;16.40;99.90
76936;DHT22;65881;52.438;16.744;2023-09-19T03:28:42;16.40;99.90
76936;DHT22;65881;52.438;16.744;2023-09-19T03:31:09;16.30;99.90
76936;DHT22;65881;52.438;16.744;2023-09-19T03:33:36;16.30;99.90
76936;DHT22;65881;52.438;16.744;2023-09-19T03:36:03;16.20;99.90
76936;DHT22;65881;52.438;16.744;2023-09-19T03:38:32;16.30;99.90
76936;DHT22;65881;52.438;16.744;2023-09-19T03:40:58;16.20;99.90
76936;DHT22;65881;52.438;16.744;2023-09-19T03:43:24;16.20;99.90
76936;DHT22;65881;52.438;16.744;2023-09-19T03:45:50;16.20;99.90
76936;DHT22;65881;52.438;16.744;2023-09-19T03:48:20;16.20;99.90
76936;DHT22;65881;52.438;16.744;2023-09-19T03:50:47;16.20;99.90
76936;DHT22;65881;52.438;16.744;2023-09-19T03:53:13;16.10;99.90
76936;DHT22;65881;52.438;16.744;2023-09-19T03:55:39;16.10;99.90
76936;DHT22;65881;52.438;16.744;2023-09-19T03:58:06;16.10;99.90
76936;DHT22;65881;52.438;16.744;2023-09-19T04:00:32;16.10;99.90
76936;DHT22;65881;52.438;16.744;2023-09-19T04:02:57;16.10;99.90
76936;DHT22;65881;52.438;16.744;2023-09-19T04:05:23;16.10;99.90
76936;DHT22;65881;52.438;16.744;2023-09-19T04:07:49;16.10;99.90
76936;DHT22;65881;52.438;16.744;2023-09-19T04:10:19;16.10;99.90
76936;DHT22;65881;52.438;16.744;2023-09-19T04:12:51;16.10;99.90
76936;DHT22;65881;52.438;16.744;2023-09-19T04:15:18;16.10;99.90
76936;DHT22;65881;52.438;16.744;2023-09-19T04:17:44;16.10;99.90
76936;DHT22;65881;52.438;16.744;2023-09-19T04:20:10;16.10;99.90
76936;DHT22;65881;52.438;16.744;2023-09-19T04:22:38;16.10;99.90
76936;DHT22;65881;52.438;16.744;2023-09-19T04:25:05;16.10;99.90
76936;DHT22;65881;52.438;16.744;2023-09-19T04:27:32;16.10;99.90
76936;DHT22;65881;52.438;16.744;2023-09-19T04:29:58;16.10;99.90
76936;DHT22;65881;52.438;16.744;2023-09-19T04:32:33;16.10;99.90
76936;DHT22;65881;52.438;16.744;2023-09-19T04:35:00;16.10;99.90
76936;DHT22;65881;52.438;16.744;2023-09-19T04:37:28;16.10;99.90
76936;DHT22;65881;52.438;16.744;2023-09-19T04:39:54;16.10;99.90
76936;DHT22;65881;52.438;16.744;2023-09-19T04:42:20;16.10;99.90
76936;DHT22;65881;52.438;16.744;2023-09-19T04:44:46;16.10;99.90
76936;DHT22;65881;52.438;16.744;2023-09-19T04:47:14;16.10;99.90
76936;DHT22;65881;52.438;16.744;2023-09-19T04:49:41;16.20;99.90
76936;DHT22;65881;52.438;16.744;2023-09-19T04:52:07;16.10;99.90
76936;DHT22;65881;52.438;16.744;2023-09-19T04:54:33;16.10;99.90
76936;DHT22;65881;52.438;16.744;2023-09-19T04:57:02;16.10;99.90
76936;DHT22;65881;52.438;16.744;2023-09-19T04:59:27;16.10;99.90
76936;DHT22;65881;52.438;16.744;2023-09-19T05:01:53;16.10;99.90
76936;DHT22;65881;52.438;16.744;2023-09-19T05:04:19;16.10;99.90
76936;DHT22;65881;52.438;16.744;2023-09-19T05:06:45;16.10;99.90
76936;DHT22;65881;52.438;16.744;2023-09-19T05:09:10;16.10;99.90
76936;DHT22;65881;52.438;16.744;2023-09-19T05:11:36;16.10;99.90
76936;DHT22;65881;52.438;16.744;2023-09-19T05:14:03;16.10;99.90
76936;DHT22;65881;52.438;16.744;2023-09-19T05:16:30;16.10;99.90
76936;DHT22;65881;52.438;16.744;2023-09-19T05:18:57;16.10;99.90
76936;DHT22;65881;52.438;16.744;2023-09-19T05:21:26;16.10;99.90
76936;DHT22;65881;52.438;16.744;2023-09-19T05:23:54;16.20;99.90
76936;DHT22;65881;52.438;16.744;2023-09-19T05:26:20;16.20;99.90
76936;DHT22;65881;52.438;16.744;2023-09-19T05:28:46;16.20;99.90
76936;DHT22;65881;52.438;16.744;2023-09-19T05:31:13;16.20;99.90
76936;DHT22;65881;52.438;16.744;2023-09-19T05:33:39;16.20;99.90
76936;DHT22;65881;52.438;16.744;2023-09-19T05:36:05;16.20;99.90
76936;DHT22;65881;52.438;16.744;2023-09-19T05:38:31;16.20;99.90
76936;DHT22;65881;52.438;16.744;2023-09-19T05:40:58;16.20;99.90
76936;DHT22;65881;52.438;16.744;2023-09-19T05:43:23;16.20;99.90
76936;DHT22;65881;52.438;16.744;2023-09-19T05:45:49;16.20;99.90
76936;DHT22;65881;52.438;16.744;2023-09-19T05:48:17;16.20;99.90
76936;DHT22;65881;52.438;16.744;2023-09-19T05:50:45;16.20;99.90
76936;DHT22;65881;52.438;16.744;2023-09-19T05:53:14;16.20;99.90
76936;DHT22;65881;52.438;16.744;2023-09-19T05:55:40;16.30;99.90
76936;DHT22;65881;52.438;16.744;2023-09-19T05:58:06;16.20;99.90
76936;DHT22;65881;52.438;16.744;2023-09-19T06:00:32;16.30;99.90
76936;DHT22;65881;52.438;16.744;2023-09-19T06:05:37;16.40;99.90
76936;DHT22;65881;52.438;16.744;2023-09-19T06:08:07;16.40;99.90
76936;DHT22;65881;52.438;16.744;2023-09-19T06:10:36;16.40;99.90
76936;DHT22;65881;52.438;16.744;2023-09-19T06:13:04;16.40;99.90
76936;DHT22;65881;52.438;16.744;2023-09-19T06:15:31;16.40;99.90
76936;DHT22;65881;52.438;16.744;2023-09-19T06:17:59;16.40;99.90
76936;DHT22;65881;52.438;16.744;2023-09-19T06:20:25;16.40;99.90
76936;DHT22;65881;52.438;16.744;2023-09-19T06:22:52;16.40;99.90
76936;DHT22;65881;52.438;16.744;2023-09-19T06:25:21;16.40;99.90
76936;DHT22;65881;52.438;16.744;2023-09-19T06:27:51;16.40;99.90
76936;DHT22;65881;52.438;16.744;2023-09-19T06:30:19;16.40;99.90
76936;DHT22;65881;52.438;16.744;2023-09-19T06:32:45;16.40;99.90
76936;DHT22;65881;52.438;16.744;2023-09-19T06:35:14;16.40;99.90
76936;DHT22;65881;52.438;16.744;2023-09-19T06:37:41;16.40;99.90
76936;DHT22;65881;52.438;16.744;2023-09-19T06:40:12;16.40;99.90
76936;DHT22;65881;52.438;16.744;2023-09-19T06:42:43;16.40;99.90
76936;DHT22;65881;52.438;16.744;2023-09-19T06:45:11;16.40;99.90
76936;DHT22;65881;52.438;16.744;2023-09-19T06:47:39;16.40;99.90
76936;DHT22;65881;52.438;16.744;2023-09-19T06:50:05;16.40;99.90
76936;DHT22;65881;52.438;16.744;2023-09-19T06:52:34;16.40;99.90
76936;DHT22;65881;52.438;16.744;2023-09-19T06:55:00;16.50;99.90
76936;DHT22;65881;52.438;16.744;2023-09-19T06:57:28;16.50;99.90
76936;DHT22;65881;52.438;16.744;2023-09-19T06:59:55;16.60;99.90
76936;DHT22;65881;52.438;16.744;2023-09-19T07:02:21;16.60;99.90
76936;DHT22;65881;52.438;16.744;2023-09-19T07:04:47;16.60;99.90
76936;DHT22;65881;52.438;16.744;2023-09-19T07:07:13;16.60;99.90
76936;DHT22;65881;52.438;16.744;2023-09-19T07:09:39;16.60;99.90
76936;DHT22;65881;52.438;16.744;2023-09-19T07:12:05;16.60;99.90
76936;DHT22;65881;52.438;16.744;2023-09-19T07:14:31;16.70;99.90
76936;DHT22;65881;52.438;16.744;2023-09-19T07:16:57;16.80;99.90
76936;DHT22;65881;52.438;16.744;2023-09-19T07:19:26;16.90;99.90
76936;DHT22;65881;52.438;16.744;2023-09-19T07:21:54;17.00;99.90
76936;DHT22;65881;52.438;16.744;2023-09-19T07:24:20;17.20;99.90
76936;DHT22;65881;52.438;16.744;2023-09-19T07:26:48;17.40;99.90
76936;DHT22;65881;52.438;16.744;2023-09-19T07:29:14;17.60;99.90
76936;DHT22;65881;52.438;16.744;2023-09-19T07:31:39;17.80;99.90
76936;DHT22;65881;52.438;16.744;2023-09-19T07:34:05;18.00;99.90
76936;DHT22;65881;52.438;16.744;2023-09-19T07:36:34;18.10;99.90
76936;DHT22;65881;52.438;16.744;2023-09-19T07:39:00;18.20;99.90
76936;DHT22;65881;52.438;16.744;2023-09-19T07:41:25;18.10;99.90
76936;DHT22;65881;52.438;16.744;2023-09-19T07:43:51;18.20;99.90
76936;DHT22;65881;52.438;16.744;2023-09-19T07:46:17;18.30;99.90
76936;DHT22;65881;52.438;16.744;2023-09-19T07:48:44;18.40;99.90
76936;DHT22;65881;52.438;16.744;2023-09-19T07:51:13;18.40;99.70
76936;DHT22;65881;52.438;16.744;2023-09-19T07:53:43;18.40;98.90
76936;DHT22;65881;52.438;16.744;2023-09-19T07:56:09;18.40;96.50
76936;DHT22;65881;52.438;16.744;2023-09-19T07:58:35;18.40;95.90
76936;DHT22;65881;52.438;16.744;2023-09-19T08:01:08;18.30;95.70
76936;DHT22;65881;52.438;16.744;2023-09-19T08:03:34;18.20;96.50
76936;DHT22;65881;52.438;16.744;2023-09-19T08:06:00;18.10;97.00
76936;DHT22;65881;52.438;16.744;2023-09-19T08:08:27;18.10;97.50
76936;DHT22;65881;52.438;16.744;2023-09-19T08:10:56;18.00;96.00
76936;DHT22;65881;52.438;16.744;2023-09-19T08:13:26;18.10;98.10
76936;DHT22;65881;52.438;16.744;2023-09-19T08:15:52;18.10;96.90
76936;DHT22;65881;52.438;16.744;2023-09-19T08:18:21;18.10;96.60
76936;DHT22;65881;52.438;16.744;2023-09-19T08:20:52;18.10;94.70
76936;DHT22;65881;52.438;16.744;2023-09-19T08:23:18;18.10;95.30
76936;DHT22;65881;52.438;16.744;2023-09-19T08:25:46;18.20;92.80
76936;DHT22;65881;52.438;16.744;2023-09-19T08:28:11;18.20;92.50
76936;DHT22;65881;52.438;16.744;2023-09-19T08:30:45;18.20;92.60
76936;DHT22;65881;52.438;16.744;2023-09-19T08:33:11;18.20;92.70
76936;DHT22;65881;52.438;16.744;2023-09-19T08:35:37;18.10;93.50
76936;DHT22;65881;52.438;16.744;2023-09-19T08:38:05;18.10;93.30
76936;DHT22;65881;52.438;16.744;2023-09-19T08:40:32;18.10;93.70
76936;DHT22;65881;52.438;16.744;2023-09-19T08:42:59;18.20;92.30
76936;DHT22;65881;52.438;16.744;2023-09-19T08:45:26;18.20;91.20
76936;DHT22;65881;52.438;16.744;2023-09-19T08:48:13;18.30;89.20
76936;DHT22;65881;52.438;16.744;2023-09-19T08:53:21;18.10;88.60
76936;DHT22;65881;52.438;16.744;2023-09-19T08:55:51;18.20;88.40
76936;DHT22;65881;52.438;16.744;2023-09-19T08:58:19;18.20;88.50
76936;DHT22;65881;52.438;16.744;2023-09-19T09:00:48;18.30;86.70
76936;DHT22;65881;52.438;16.744;2023-09-19T09:03:16;18.30;87.50
76936;DHT22;65881;52.438;16.744;2023-09-19T09:05:45;18.30;86.90
76936;DHT22;65881;52.438;16.744;2023-09-19T09:08:13;18.30;86.30
76936;DHT22;65881;52.438;16.744;2023-09-19T09:10:39;18.40;85.00
76936;DHT22;65881;52.438;16.744;2023-09-19T09:13:06;18.50;85.40
76936;DHT22;65881;52.438;16.744;2023-09-19T09:15:35;18.60;84.70
76936;DHT22;65881;52.438;16.744;2023-09-19T09:18:02;18.80;84.20
76936;DHT22;65881;52.438;16.744;2023-09-19T09:20:30;18.90;83.30
76936;DHT22;65881;52.438;16.744;2023-09-19T09:22:56;19.00;82.80
76936;DHT22;65881;52.438;16.744;2023-09-19T09:25:51;19.10;83.40
76936;DHT22;65881;52.438;16.744;2023-09-19T09:28:24;19.40;81.10
76936;DHT22;65881;52.438;16.744;2023-09-19T09:30:50;19.50;81.20
76936;DHT22;65881;52.438;16.744;2023-09-19T09:33:16;19.70;79.90
76936;DHT22;65881;52.438;16.744;2023-09-19T09:38:21;19.70;78.40
76936;DHT22;65881;52.438;16.744;2023-09-19T09:40:51;19.70;80.30
76936;DHT22;65881;52.438;16.744;2023-09-19T09:43:36;19.90;76.70
76936;DHT22;65881;52.438;16.744;2023-09-19T09:46:19;20.10;77.60
76936;DHT22;65881;52.438;16.744;2023-09-19T09:49:01;20.00;75.30
76936;DHT22;65881;52.438;16.744;2023-09-19T09:51:40;20.10;76.30
76936;DHT22;65881;52.438;16.744;2023-09-19T09:54:15;20.20;73.90
76936;DHT22;65881;52.438;16.744;2023-09-19T09:56:54;20.00;76.50
76936;DHT22;65881;52.438;16.744;2023-09-19T10:02:09;19.80;71.10
76936;DHT22;65881;52.438;16.744;2023-09-19T10:04:39;19.50;72.10
76936;DHT22;65881;52.438;16.744;2023-09-19T10:07:43;19.50;73.20
76936;DHT22;65881;52.438;16.744;2023-09-19T10:10:33;19.50;72.80
76936;DHT22;65881;52.438;16.744;2023-09-19T10:13:08;19.70;72.30
76936;DHT22;65881;52.438;16.744;2023-09-19T10:15:38;19.80;72.10
76936;DHT22;65881;52.438;16.744;2023-09-19T10:18:06;19.70;73.60
76936;DHT22;65881;52.438;16.744;2023-09-19T10:20:36;19.80;75.30
76936;DHT22;65881;52.438;16.744;2023-09-19T10:23:08;20.30;73.00
76936;DHT22;65881;52.438;16.744;2023-09-19T10:25:37;20.60;71.90
76936;DHT22;65881;52.438;16.744;2023-09-19T10:28:06;20.70;69.40
76936;DHT22;65881;52.438;16.744;2023-09-19T10:30:38;21.00;66.70
76936;DHT22;65881;52.438;16.744;2023-09-19T10:33:08;21.10;64.00
76936;DHT22;65881;52.438;16.744;2023-09-19T10:35:45;20.80;64.20
76936;DHT22;65881;52.438;16.744;2023-09-19T10:38:13;20.90;64.80
76936;DHT22;65881;52.438;16.744;2023-09-19T10:40:40;21.00;64.60
76936;DHT22;65881;52.438;16.744;2023-09-19T10:43:15;20.50;61.50
76936;DHT22;65881;52.438;16.744;2023-09-19T10:45:45;20.30;61.80
76936;DHT22;65881;52.438;16.744;2023-09-19T10:48:13;20.00;62.50
76936;DHT22;65881;52.438;16.744;2023-09-19T10:50:53;20.00;63.90
76936;DHT22;65881;52.438;16.744;2023-09-19T10:53:26;20.00;62.50
76936;DHT22;65881;52.438;16.744;2023-09-19T10:55:56;20.00;63.70
76936;DHT22;65881;52.438;16.744;2023-09-19T10:58:29;20.00;64.60
76936;DHT22;65881;52.438;16.744;2023-09-19T11:01:00;19.90;64.80
76936;DHT22;65881;52.438;16.744;2023-09-19T11:03:31;20.30;65.50
76936;DHT22;65881;52.438;16.744;2023-09-19T11:08:59;20.90;64.70
76936;DHT22;65881;52.438;16.744;2023-09-19T11:11:51;21.00;64.00
76936;DHT22;65881;52.438;16.744;2023-09-19T11:30:47;20.40;65.00
76936;DHT22;65881;52.438;16.744;2023-09-19T11:36:01;21.20;63.00
76936;DHT22;65881;52.438;16.744;2023-09-19T11:49:32;21.60;58.60
76936;DHT22;65881;52.438;16.744;2023-09-19T11:52:02;21.30;59.90
76936;DHT22;65881;52.438;16.744;2023-09-19T11:54:32;21.50;61.00
76936;DHT22;65881;52.438;16.744;2023-09-19T11:56:59;21.50;57.60
76936;DHT22;65881;52.438;16.744;2023-09-19T11:59:27;21.70;57.00
76936;DHT22;65881;52.438;16.744;2023-09-19T12:01:57;21.30;59.40
76936;DHT22;65881;52.438;16.744;2023-09-19T12:07:07;21.30;57.50
76936;DHT22;65881;52.438;16.744;2023-09-19T12:09:39;20.80;57.90
76936;DHT22;65881;52.438;16.744;2023-09-19T12:12:05;20.30;59.60
76936;DHT22;65881;52.438;16.744;2023-09-19T12:14:31;20.60;62.80
76936;DHT22;65881;52.438;16.744;2023-09-19T12:16:58;20.50;57.30
76936;DHT22;65881;52.438;16.744;2023-09-19T12:19:26;20.50;57.90
76936;DHT22;65881;52.438;16.744;2023-09-19T12:22:00;20.70;58.40
76936;DHT22;65881;52.438;16.744;2023-09-19T12:24:34;20.90;56.60
76936;DHT22;65881;52.438;16.744;2023-09-19T12:27:07;20.70;56.10
76936;DHT22;65881;52.438;16.744;2023-09-19T12:32:10;21.00;58.20
76936;DHT22;65881;52.438;16.744;2023-09-19T12:34:36;21.40;55.70
76936;DHT22;65881;52.438;16.744;2023-09-19T12:39:52;21.80;54.50
76936;DHT22;65881;52.438;16.744;2023-09-19T12:42:23;21.90;54.60
76936;DHT22;65881;52.438;16.744;2023-09-19T12:44:52;21.90;53.50
76936;DHT22;65881;52.438;16.744;2023-09-19T12:47:22;22.00;52.60
76936;DHT22;65881;52.438;16.744;2023-09-19T12:50:13;22.00;53.00
76936;DHT22;65881;52.438;16.744;2023-09-19T12:52:40;22.20;52.00
76936;DHT22;65881;52.438;16.744;2023-09-19T12:55:07;22.30;50.20
76936;DHT22;65881;52.438;16.744;2023-09-19T12:57:36;22.20;50.90
76936;DHT22;65881;52.438;16.744;2023-09-19T13:00:05;22.20;52.60
76936;DHT22;65881;52.438;16.744;2023-09-19T13:02:31;22.20;51.40
76936;DHT22;65881;52.438;16.744;2023-09-19T13:04:57;22.20;51.30
76936;DHT22;65881;52.438;16.744;2023-09-19T13:07:44;22.20;51.20
76936;DHT22;65881;52.438;16.744;2023-09-19T13:10:14;22.10;51.10
76936;DHT22;65881;52.438;16.744;2023-09-19T13:12:42;22.00;51.90
76936;DHT22;65881;52.438;16.744;2023-09-19T13:15:14;22.00;52.30
76936;DHT22;65881;52.438;16.744;2023-09-19T13:17:47;21.90;52.70
76936;DHT22;65881;52.438;16.744;2023-09-19T13:20:26;21.90;53.20
76936;DHT22;65881;52.438;16.744;2023-09-19T13:22:57;21.70;54.70
76936;DHT22;65881;52.438;16.744;2023-09-19T13:25:33;21.60;53.80
76936;DHT22;65881;52.438;16.744;2023-09-19T13:28:00;21.40;55.60
76936;DHT22;65881;52.438;16.744;2023-09-19T13:30:30;21.40;55.90
76936;DHT22;65881;52.438;16.744;2023-09-19T13:33:11;21.20;56.40
76936;DHT22;65881;52.438;16.744;2023-09-19T13:35:39;21.10;57.60
76936;DHT22;65881;52.438;16.744;2023-09-19T13:38:08;21.30;56.90
76936;DHT22;65881;52.438;16.744;2023-09-19T13:40:38;21.30;56.50
76936;DHT22;65881;52.438;16.744;2023-09-19T13:43:05;21.10;56.10
76936;DHT22;65881;52.438;16.744;2023-09-19T13:45:32;21.00;57.90
76936;DHT22;65881;52.438;16.744;2023-09-19T13:47:57;21.00;56.90
76936;DHT22;65881;52.438;16.744;2023-09-19T13:50:26;20.80;57.10
76936;DHT22;65881;52.438;16.744;2023-09-19T13:52:54;20.70;59.30
76936;DHT22;65881;52.438;16.744;2023-09-19T13:55:20;20.80;58.90
76936;DHT22;65881;52.438;16.744;2023-09-19T13:57:47;20.90;57.50
76936;DHT22;65881;52.438;16.744;2023-09-19T14:00:18;20.80;58.60
76936;DHT22;65881;52.438;16.744;2023-09-19T14:02:44;20.80;55.80
76936;DHT22;65881;52.438;16.744;2023-09-19T14:05:10;20.70;56.70
76936;DHT22;65881;52.438;16.744;2023-09-19T14:07:41;20.60;58.90
76936;DHT22;65881;52.438;16.744;2023-09-19T14:10:07;20.50;59.70
76936;DHT22;65881;52.438;16.744;2023-09-19T14:12:39;20.50;60.20
76936;DHT22;65881;52.438;16.744;2023-09-19T14:15:10;20.50;60.10
76936;DHT22;65881;52.438;16.744;2023-09-19T14:17:37;20.60;61.00
76936;DHT22;65881;52.438;16.744;2023-09-19T14:20:03;20.70;59.70
76936;DHT22;65881;52.438;16.744;2023-09-19T14:22:31;20.80;58.10
76936;DHT22;65881;52.438;16.744;2023-09-19T14:24:56;20.80;56.40
76936;DHT22;65881;52.438;16.744;2023-09-19T14:27:23;20.90;57.30
76936;DHT22;65881;52.438;16.744;2023-09-19T14:29:50;21.00;55.60
76936;DHT22;65881;52.438;16.744;2023-09-19T14:32:16;21.00;54.70
76936;DHT22;65881;52.438;16.744;2023-09-19T14:34:43;21.00;54.30
76936;DHT22;65881;52.438;16.744;2023-09-19T14:37:10;20.80;54.20
76936;DHT22;65881;52.438;16.744;2023-09-19T14:39:37;20.70;54.20
76936;DHT22;65881;52.438;16.744;2023-09-19T14:42:05;20.50;55.60
76936;DHT22;65881;52.438;16.744;2023-09-19T14:44:30;20.50;56.60
76936;DHT22;65881;52.438;16.744;2023-09-19T14:47:16;20.50;53.10
76936;DHT22;65881;52.438;16.744;2023-09-19T14:49:45;20.30;52.90
76936;DHT22;65881;52.438;16.744;2023-09-19T14:52:11;20.10;52.80
76936;DHT22;65881;52.438;16.744;2023-09-19T14:54:41;20.10;53.00
76936;DHT22;65881;52.438;16.744;2023-09-19T14:57:07;20.00;53.80
76936;DHT22;65881;52.438;16.744;2023-09-19T14:59:34;20.00;53.90
76936;DHT22;65881;52.438;16.744;2023-09-19T15:02:04;20.00;54.70
76936;DHT22;65881;52.438;16.744;2023-09-19T15:04:30;20.00;54.20
76936;DHT22;65881;52.438;16.744;2023-09-19T15:06:58;20.00;54.30
76936;DHT22;65881;52.438;16.744;2023-09-19T15:09:25;19.90;54.90
76936;DHT22;65881;52.438;16.744;2023-09-19T15:11:55;19.90;55.00
76936;DHT22;65881;52.438;16.744;2023-09-19T15:14:21;19.90;55.80
76936;DHT22;65881;52.438;16.744;2023-09-19T15:16:48;19.90;55.10
76936;DHT22;65881;52.438;16.744;2023-09-19T15:19:14;19.90;55.20
76936;DHT22;65881;52.438;16.744;2023-09-19T15:21:41;19.80;55.10
76936;DHT22;65881;52.438;16.744;2023-09-19T15:24:08;19.80;54.70
76936;DHT22;65881;52.438;16.744;2023-09-19T15:26:37;19.70;55.00
76936;DHT22;65881;52.438;16.744;2023-09-19T15:29:08;19.70;54.50
76936;DHT22;65881;52.438;16.744;2023-09-19T15:31:35;19.70;54.90
76936;DHT22;65881;52.438;16.744;2023-09-19T15:34:06;19.60;54.80
76936;DHT22;65881;52.438;16.744;2023-09-19T15:36:36;19.60;56.10
76936;DHT22;65881;52.438;16.744;2023-09-19T15:39:06;19.50;56.10
76936;DHT22;65881;52.438;16.744;2023-09-19T15:41:36;19.50;56.80
76936;DHT22;65881;52.438;16.744;2023-09-19T15:44:13;19.40;57.10
76936;DHT22;65881;52.438;16.744;2023-09-19T15:46:42;19.40;56.90
76936;DHT22;65881;52.438;16.744;2023-09-19T15:49:14;19.30;54.60
76936;DHT22;65881;52.438;16.744;2023-09-19T15:51:40;19.30;55.30
76936;DHT22;65881;52.438;16.744;2023-09-19T15:54:13;19.20;54.70
76936;DHT22;65881;52.438;16.744;2023-09-19T15:56:41;19.20;54.00
76936;DHT22;65881;52.438;16.744;2023-09-19T15:59:08;19.20;54.80
76936;DHT22;65881;52.438;16.744;2023-09-19T16:01:35;19.10;55.10
76936;DHT22;65881;52.438;16.744;2023-09-19T16:04:01;19.10;54.50
76936;DHT22;65881;52.438;16.744;2023-09-19T16:06:28;19.10;54.90
76936;DHT22;65881;52.438;16.744;2023-09-19T16:08:58;19.00;54.50
76936;DHT22;65881;52.438;16.744;2023-09-19T16:11:27;19.00;54.00
76936;DHT22;65881;52.438;16.744;2023-09-19T16:13:57;18.90;54.70
76936;DHT22;65881;52.438;16.744;2023-09-19T16:16:27;18.90;54.70
76936;DHT22;65881;52.438;16.744;2023-09-19T16:19:04;18.70;54.80
76936;DHT22;65881;52.438;16.744;2023-09-19T16:21:33;18.60;55.80
76936;DHT22;65881;52.438;16.744;2023-09-19T16:24:01;18.60;56.10
76936;DHT22;65881;52.438;16.744;2023-09-19T16:26:27;18.50;55.90
76936;DHT22;65881;52.438;16.744;2023-09-19T16:28:55;18.40;56.30
76936;DHT22;65881;52.438;16.744;2023-09-19T16:31:29;18.40;57.00
76936;DHT22;65881;52.438;16.744;2023-09-19T16:33:56;18.20;57.30